Terminal Aerodrome Forecast
Issued by NWS

Home | Current Version | Previous Version | Text Only | Print | Product List | Glossary Off
Versions: 1 2 3 4 5 6 7 8 9 10 11 12 13 14 15 16 17 18 19

000
FTUS43 KMPX 161700
TAFRNH
TAF
KRNH 161730Z 1618/1718 33014G22KT P6SM -SN BKN015 OVC040
      TEMPO 1618/1622 3SM -SN BKN020
     FM162200 32015G21KT P6SM -SN BKN020 OVC050
     FM170100 31012KT P6SM -SN BKN025=

USA.gov is the U.S. government's official web portal to all federal, state and local government web resources and services.